Time;durP1;ratioP1;P1;durP2;ratioP2;P2;SDS_P1;SDS_P2;PMS_P1;PMS_P2;Temp;Humidity;BMP_temperature;BMP_pressure;BME280_temperature;BME280_humidity;BME280_pressure;Samples;Min_cycle;Max_cycle;Signal;HPM_P1;HPM_P2
2022/01/13 00:00:31;;;;;;;137.60;26.67;;;4.50;99.90;;;;;;5065653;28;20210;-76
2022/01/13 00:02:58;;;;;;;148.13;29.57;;;4.50;99.90;;;;;;5062326;28;20243;-76
2022/01/13 00:05:30;;;;;;;173.73;29.67;;;4.40;99.90;;;;;;5070684;28;20295;-76
2022/01/13 00:07:58;;;;;;;148.60;27.93;;;4.40;99.90;;;;;;5065909;28;20235;-77
2022/01/13 00:10:25;;;;;;;171.07;28.40;;;4.40;99.90;;;;;;5069028;28;20197;-76
2022/01/13 00:13:02;;;;;;;166.63;28.40;;;4.40;99.90;;;;;;5074053;28;20302;-76
2022/01/13 00:18:18;;;;;;;149.57;26.97;;;4.40;99.90;;;;;;5066711;28;20228;-76
2022/01/13 00:23:43;;;;;;;166.57;27.53;;;4.40;99.90;;;;;;5066753;28;20212;-76
2022/01/13 00:26:25;;;;;;;167.33;27.63;;;4.40;99.90;;;;;;5066103;28;20307;-76
2022/01/13 00:28:53;;;;;;;169.50;27.60;;;4.40;99.90;;;;;;5068604;28;20211;-76
2022/01/13 00:31:28;;;;;;;172.03;28.60;;;4.40;99.90;;;;;;5070019;28;20200;-75
2022/01/13 00:33:57;;;;;;;149.80;26.17;;;4.30;99.90;;;;;;5073644;28;20256;-76
2022/01/13 00:36:29;;;;;;;154.97;27.37;;;4.40;99.90;;;;;;5067710;28;20213;-76
2022/01/13 00:38:56;;;;;;;153.47;25.80;;;4.50;99.90;;;;;;5068798;28;20757;-74
2022/01/13 00:41:27;;;;;;;138.73;27.00;;;4.50;99.90;;;;;;5070261;28;20524;-76
2022/01/13 00:43:59;;;;;;;150.53;27.30;;;4.50;99.90;;;;;;5065091;28;20339;-76
2022/01/13 00:46:30;;;;;;;160.87;27.43;;;4.60;99.90;;;;;;5066582;28;20212;-76
2022/01/13 00:48:58;;;;;;;143.80;28.33;;;4.50;99.90;;;;;;5068340;28;20201;-76
2022/01/13 00:51:25;;;;;;;126.43;24.90;;;4.50;99.90;;;;;;5069187;28;20736;-76
2022/01/13 00:53:52;;;;;;;140.13;25.80;;;4.50;99.90;;;;;;5068113;28;20226;-75
2022/01/13 00:56:20;;;;;;;147.30;28.03;;;4.50;99.90;;;;;;5073958;28;20219;-76
2022/01/13 00:58:48;;;;;;;137.07;26.80;;;4.50;99.90;;;;;;5069374;28;20258;-75
2022/01/13 01:01:15;;;;;;;144.93;27.30;;;4.40;99.90;;;;;;5062153;28;20318;-76
2022/01/13 01:03:42;;;;;;;129.00;26.83;;;4.40;99.90;;;;;;5073420;28;20232;-74
2022/01/13 01:06:08;;;;;;;147.87;28.93;;;4.40;99.90;;;;;;5066847;28;20398;-75
2022/01/13 01:08:35;;;;;;;143.00;25.53;;;4.40;99.90;;;;;;5064620;28;20201;-75
2022/01/13 01:11:04;;;;;;;142.57;27.13;;;4.50;99.90;;;;;;5072540;28;20239;-76
2022/01/13 01:13:33;;;;;;;159.47;27.93;;;4.40;99.90;;;;;;5070930;28;20292;-75
2022/01/13 01:16:06;;;;;;;160.50;27.23;;;4.40;99.90;;;;;;5063933;28;20311;-75
2022/01/13 01:21:33;;;;;;;162.93;29.53;;;4.30;99.90;;;;;;5069088;28;20205;-75
2022/01/13 01:24:25;;;;;;;164.87;27.27;;;4.40;99.90;;;;;;5062585;28;20204;-75
2022/01/13 01:26:52;;;;;;;168.33;30.50;;;4.30;99.90;;;;;;5069945;28;20233;-76
2022/01/13 01:29:33;;;;;;;177.67;28.27;;;4.40;99.90;;;;;;5068117;28;20243;-75
2022/01/13 01:32:01;;;;;;;145.33;27.63;;;4.40;99.90;;;;;;5068085;28;20233;-76
2022/01/13 01:36:59;;;;;;;152.70;29.60;;;4.40;99.90;;;;;;5066647;28;20256;-75
2022/01/13 01:39:26;;;;;;;161.03;28.47;;;4.50;99.90;;;;;;5066529;28;20497;-76
2022/01/13 01:41:56;;;;;;;180.83;28.70;;;4.50;99.90;;;;;;5060902;28;20231;-74
2022/01/13 01:44:31;;;;;;;177.10;28.70;;;4.40;99.90;;;;;;5061141;28;20204;-75
2022/01/13 01:47:00;;;;;;;157.23;30.30;;;4.40;99.90;;;;;;5063393;28;20219;-76
2022/01/13 01:49:28;;;;;;;189.80;29.20;;;4.30;99.90;;;;;;5065772;28;20224;-75
2022/01/13 01:52:00;;;;;;;176.40;29.30;;;4.30;99.90;;;;;;5067630;28;20207;-75
2022/01/13 01:54:28;;;;;;;194.97;29.80;;;4.30;99.90;;;;;;5070164;28;20209;-75
2022/01/13 01:56:55;;;;;;;195.10;28.67;;;4.30;99.90;;;;;;5066385;28;20299;-75
2022/01/13 01:59:27;;;;;;;186.70;28.97;;;4.40;99.90;;;;;;5063031;28;20205;-76
2022/01/13 02:01:54;;;;;;;170.40;27.47;;;4.30;99.90;;;;;;5073674;28;21456;-77
2022/01/13 02:04:24;;;;;;;193.40;29.30;;;4.30;99.90;;;;;;5067303;28;20212;-76
2022/01/13 02:06:51;;;;;;;192.07;28.03;;;4.30;99.90;;;;;;5060036;28;20209;-76
2022/01/13 02:09:19;;;;;;;184.13;27.73;;;4.30;99.90;;;;;;5067749;28;20216;-75
2022/01/13 02:11:51;;;;;;;214.13;28.53;;;4.30;99.90;;;;;;5067377;28;20210;-76
2022/01/13 02:14:33;;;;;;;196.63;28.67;;;4.30;99.90;;;;;;5066716;28;20207;-76
2022/01/13 02:17:09;;;;;;;186.33;27.73;;;4.30;99.90;;;;;;5062960;28;20233;-76
2022/01/13 02:19:38;;;;;;;223.77;29.40;;;4.30;99.90;;;;;;5068362;28;20220;-76
2022/01/13 02:22:06;;;;;;;183.67;28.07;;;4.30;99.90;;;;;;5066453;28;20330;-75
2022/01/13 02:24:34;;;;;;;207.90;28.23;;;4.40;99.90;;;;;;5061863;28;20208;-76
2022/01/13 02:27:02;;;;;;;218.83;28.13;;;4.40;99.90;;;;;;5069900;28;20243;-74
2022/01/13 02:29:29;;;;;;;168.63;26.33;;;4.40;99.90;;;;;;5068411;28;20207;-76
2022/01/13 02:31:56;;;;;;;164.07;27.27;;;4.40;99.90;;;;;;5055320;28;20256;-76
2022/01/13 02:34:23;;;;;;;187.03;29.13;;;4.50;99.90;;;;;;5071289;28;20220;-76
2022/01/13 02:36:53;;;;;;;181.80;27.37;;;4.50;99.90;;;;;;5068977;28;20218;-76
2022/01/13 02:39:22;;;;;;;190.43;28.00;;;4.50;99.90;;;;;;5067751;28;20232;-76
2022/01/13 02:41:49;;;;;;;163.97;24.93;;;4.60;99.90;;;;;;5067273;28;20235;-76
2022/01/13 02:44:19;;;;;;;203.93;26.87;;;4.60;99.90;;;;;;5070853;28;20623;-75
2022/01/13 02:49:21;;;;;;;188.83;24.87;;;4.60;99.90;;;;;;5064912;28;20212;-75
2022/01/13 02:51:51;;;;;;;196.63;26.07;;;4.60;99.90;;;;;;5067486;28;20218;-75
2022/01/13 02:54:19;;;;;;;168.20;25.87;;;4.60;99.90;;;;;;5059685;28;20215;-76
2022/01/13 02:56:46;;;;;;;168.43;24.60;;;4.50;99.90;;;;;;5068634;28;20693;-75
2022/01/13 02:59:13;;;;;;;202.33;27.83;;;4.50;99.90;;;;;;5062550;28;20544;-76
2022/01/13 03:01:41;;;;;;;205.70;26.00;;;4.50;99.90;;;;;;5066040;28;20231;-75
2022/01/13 03:04:09;;;;;;;208.57;25.87;;;4.60;99.90;;;;;;5064207;28;20587;-75
2022/01/13 03:06:39;;;;;;;176.17;27.53;;;4.50;99.90;;;;;;5065491;28;20215;-76
2022/01/13 03:09:08;;;;;;;226.90;28.63;;;4.60;99.90;;;;;;5072914;28;20352;-75
2022/01/13 03:11:37;;;;;;;199.33;26.13;;;4.50;99.90;;;;;;5067271;28;20240;-75
2022/01/13 03:14:08;;;;;;;214.53;28.33;;;4.60;99.90;;;;;;5070861;28;20291;-75
2022/01/13 03:16:35;;;;;;;200.80;27.03;;;4.50;99.90;;;;;;5063827;28;20296;-76
2022/01/13 03:19:02;;;;;;;219.20;25.77;;;4.50;99.90;;;;;;5068305;28;20209;-75
2022/01/13 03:21:29;;;;;;;194.47;27.23;;;4.50;99.90;;;;;;5064585;28;20699;-76
2022/01/13 03:23:56;;;;;;;187.30;27.03;;;4.50;99.90;;;;;;5068163;28;20557;-76
2022/01/13 03:26:24;;;;;;;189.03;25.47;;;4.50;99.90;;;;;;5069123;28;20204;-76
2022/01/13 03:28:54;;;;;;;207.40;27.23;;;4.50;99.90;;;;;;5062112;28;20212;-76
2022/01/13 03:31:24;;;;;;;189.90;26.83;;;4.50;99.90;;;;;;5067022;28;20659;-76
2022/01/13 03:33:53;;;;;;;223.43;27.60;;;4.50;99.90;;;;;;5072987;28;20211;-77
2022/01/13 03:36:19;;;;;;;214.17;26.83;;;4.50;99.90;;;;;;5065269;28;20206;-75
2022/01/13 03:38:46;;;;;;;211.03;27.37;;;4.40;99.90;;;;;;5067589;28;20229;-75
2022/01/13 03:41:14;;;;;;;187.83;25.33;;;4.50;99.90;;;;;;5069713;28;20499;-76
2022/01/13 03:43:41;;;;;;;193.37;27.17;;;4.50;99.90;;;;;;5068860;28;20364;-75
2022/01/13 03:46:08;;;;;;;156.80;24.87;;;4.50;99.90;;;;;;5066408;28;20685;-75
2022/01/13 03:48:38;;;;;;;182.40;25.73;;;4.60;99.90;;;;;;5068322;28;20293;-75
2022/01/13 03:51:05;;;;;;;180.13;25.80;;;4.60;99.90;;;;;;5067665;28;20899;-76
2022/01/13 03:53:32;;;;;;;171.77;24.90;;;4.50;99.90;;;;;;5067014;28;20208;-76
2022/01/13 03:56:49;;;;;;;211.00;25.97;;;4.50;99.90;;;;;;5071045;28;20209;-76
2022/01/13 03:59:44;;;;;;;168.20;24.40;;;4.40;99.90;;;;;;5067361;28;20210;-75
2022/01/13 04:02:13;;;;;;;169.83;26.77;;;4.40;99.90;;;;;;5064484;28;20232;-76
2022/01/13 04:04:42;;;;;;;160.43;22.23;;;4.50;99.90;;;;;;5073601;28;20564;-75
2022/01/13 04:07:18;;;;;;;181.17;25.60;;;4.50;99.90;;;;;;5070464;28;20201;-75
2022/01/13 04:09:45;;;;;;;171.80;24.63;;;4.50;99.90;;;;;;5071354;28;20630;-75
2022/01/13 04:12:14;;;;;;;164.53;22.03;;;4.50;99.90;;;;;;5067959;28;20564;-75
2022/01/13 04:15:00;;;;;;;147.10;22.83;;;4.50;99.90;;;;;;5073788;28;20211;-75
2022/01/13 04:17:27;;;;;;;120.43;21.57;;;4.50;99.90;;;;;;5070459;28;20677;-75
2022/01/13 04:19:55;;;;;;;119.60;21.33;;;4.50;99.90;;;;;;5070109;28;20200;-76
2022/01/13 04:22:24;;;;;;;138.50;22.37;;;4.50;99.90;;;;;;5074847;28;20672;-75
2022/01/13 04:24:51;;;;;;;110.53;19.70;;;4.50;99.90;;;;;;5072216;28;20251;-75
2022/01/13 04:27:28;;;;;;;109.83;20.07;;;4.50;99.90;;;;;;5069855;28;20222;-76
2022/01/13 04:32:40;;;;;;;123.63;20.87;;;4.50;99.90;;;;;;5072189;28;20742;-76
2022/01/13 04:35:09;;;;;;;134.70;21.20;;;4.50;99.90;;;;;;5070329;28;20223;-75
2022/01/13 04:37:36;;;;;;;128.80;21.77;;;4.50;99.90;;;;;;5064308;28;20215;-75
2022/01/13 04:40:05;;;;;;;118.83;21.50;;;4.50;99.90;;;;;;5068851;28;20239;-75
2022/01/13 04:42:35;;;;;;;127.20;22.77;;;4.40;99.90;;;;;;5072300;28;20319;-76
2022/01/13 04:45:03;;;;;;;133.80;20.30;;;4.40;99.90;;;;;;5062269;28;20262;-76
2022/01/13 04:47:30;;;;;;;119.23;21.23;;;4.50;99.90;;;;;;5072112;28;20229;-76
2022/01/13 04:49:57;;;;;;;134.73;22.47;;;4.50;99.90;;;;;;5070839;28;20302;-76
2022/01/13 04:52:24;;;;;;;128.23;21.43;;;4.50;99.90;;;;;;5070069;28;20668;-75
2022/01/13 04:54:51;;;;;;;137.13;22.87;;;4.40;99.90;;;;;;5073209;28;20713;-75
2022/01/13 04:57:18;;;;;;;112.63;20.50;;;4.50;99.90;;;;;;5067412;28;20291;-76
2022/01/13 04:59:45;;;;;;;123.20;20.47;;;4.40;99.90;;;;;;5063365;28;20207;-75
2022/01/13 05:02:16;;;;;;;127.80;22.97;;;4.40;99.90;;;;;;5061363;28;20224;-76
2022/01/13 05:04:43;;;;;;;109.07;22.13;;;4.30;99.90;;;;;;5069627;28;20236;-76
2022/01/13 05:07:09;;;;;;;111.90;22.80;;;4.40;99.90;;;;;;5067116;28;20672;-76
2022/01/13 05:09:36;;;;;;;113.33;22.93;;;4.30;99.90;;;;;;5065536;28;20314;-76
2022/01/13 05:12:03;;;;;;;108.57;20.90;;;4.40;99.90;;;;;;5067830;28;20209;-76
2022/01/13 05:14:31;;;;;;;105.20;21.00;;;4.30;99.90;;;;;;5063325;28;20208;-76
2022/01/13 05:17:46;;;;;;;103.33;19.17;;;4.30;99.90;;;;;;5066190;28;20232;-76
2022/01/13 05:19:58;;;;;;;107.80;19.70;;;4.30;99.90;;;;;;5071778;28;20207;-75
2022/01/13 05:22:26;;;;;;;98.90;19.70;;;4.40;99.90;;;;;;5066275;28;20243;-75
2022/01/13 05:24:53;;;;;;;105.60;21.07;;;4.40;99.90;;;;;;5070250;28;20215;-77
2022/01/13 05:27:21;;;;;;;127.03;22.30;;;4.50;99.90;;;;;;5072000;28;20201;-75
2022/01/13 05:29:47;;;;;;;123.50;24.20;;;4.50;99.90;;;;;;5075781;28;20657;-76
2022/01/13 05:32:15;;;;;;;119.27;22.13;;;4.40;99.90;;;;;;5081759;28;20216;-75
2022/01/13 05:34:42;;;;;;;114.93;21.43;;;4.30;99.90;;;;;;5093888;28;20585;-75
2022/01/13 05:37:11;;;;;;;110.73;21.03;;;4.40;99.90;;;;;;5097371;28;20295;-75
2022/01/13 05:39:38;;;;;;;96.77;20.90;;;4.40;99.90;;;;;;5094419;28;20318;-76
2022/01/13 05:42:05;;;;;;;126.33;21.23;;;4.40;99.90;;;;;;5091799;28;20676;-75
2022/01/13 05:44:38;;;;;;;96.70;19.63;;;4.40;99.90;;;;;;5084033;28;20717;-75
2022/01/13 05:47:07;;;;;;;104.67;21.40;;;4.40;99.90;;;;;;5093054;28;20217;-76
2022/01/13 05:49:34;;;;;;;105.07;20.93;;;4.30;99.90;;;;;;5097681;28;20310;-76
2022/01/13 05:52:01;;;;;;;102.10;20.67;;;4.30;99.90;;;;;;5094505;28;20624;-75
2022/01/13 05:54:27;;;;;;;97.97;19.40;;;4.30;99.90;;;;;;5093915;28;20213;-76
2022/01/13 05:56:54;;;;;;;100.43;20.73;;;4.30;99.90;;;;;;5095508;28;20619;-76
2022/01/13 05:59:21;;;;;;;114.33;21.13;;;4.20;99.90;;;;;;5087766;28;20710;-76
2022/01/13 06:01:48;;;;;;;84.90;18.27;;;4.30;99.90;;;;;;5095051;28;20682;-75
2022/01/13 06:04:16;;;;;;;97.63;20.13;;;4.30;99.90;;;;;;5091093;28;20306;-76
2022/01/13 06:06:42;;;;;;;97.93;19.27;;;4.30;99.90;;;;;;5087007;28;20666;-75
2022/01/13 06:09:09;;;;;;;93.10;19.10;;;4.30;99.90;;;;;;5094673;28;20206;-76
2022/01/13 06:11:58;;;;;;;98.27;20.07;;;4.30;99.90;;;;;;5098597;28;20210;-76
2022/01/13 06:14:25;;;;;;;88.93;19.00;;;4.30;99.90;;;;;;5087941;28;20304;-76
2022/01/13 06:16:51;;;;;;;85.90;19.37;;;4.30;99.90;;;;;;5078290;28;20689;-75
2022/01/13 06:19:18;;;;;;;84.77;20.63;;;4.30;99.90;;;;;;5075730;28;20286;-76
2022/01/13 06:21:46;;;;;;;88.03;19.47;;;4.30;99.90;;;;;;5092674;28;20204;-76
2022/01/13 06:24:13;;;;;;;88.80;18.63;;;4.30;99.90;;;;;;5091342;28;20230;-76
2022/01/13 06:26:40;;;;;;;92.57;21.30;;;4.30;99.90;;;;;;5097317;28;20287;-76
2022/01/13 06:29:06;;;;;;;82.13;19.43;;;4.30;99.90;;;;;;5094547;28;20634;-76
2022/01/13 06:31:33;;;;;;;85.50;19.63;;;4.30;99.90;;;;;;5076203;28;20716;-76
2022/01/13 06:34:00;;;;;;;82.40;18.90;;;4.30;99.90;;;;;;5080953;28;20200;-76
2022/01/13 06:36:27;;;;;;;85.27;19.97;;;4.30;99.90;;;;;;5091146;28;20222;-75
2022/01/13 06:38:53;;;;;;;96.37;20.90;;;4.40;99.90;;;;;;5093433;28;20591;-76
2022/01/13 06:41:20;;;;;;;97.63;19.83;;;4.40;99.90;;;;;;5090847;28;20660;-77
2022/01/13 06:43:47;;;;;;;93.40;21.10;;;4.40;99.90;;;;;;5099769;28;20236;-76
2022/01/13 06:46:15;;;;;;;91.63;20.83;;;4.40;99.90;;;;;;5089542;28;20750;-76
2022/01/13 06:48:45;;;;;;;91.17;19.53;;;4.20;99.90;;;;;;5067632;28;20743;-76
2022/01/13 06:51:11;;;;;;;76.50;18.90;;;4.20;99.90;;;;;;5086439;28;20204;-75
2022/01/13 06:53:38;;;;;;;90.03;19.67;;;4.20;99.90;;;;;;5075648;28;20310;-76
2022/01/13 06:56:05;;;;;;;104.73;21.13;;;4.30;99.90;;;;;;5093497;28;20577;-76
2022/01/13 06:58:32;;;;;;;91.73;20.57;;;4.20;99.90;;;;;;5085115;28;20300;-76
2022/01/13 07:00:59;;;;;;;98.53;20.70;;;4.30;99.90;;;;;;5073384;28;20212;-76
2022/01/13 07:03:26;;;;;;;94.73;20.67;;;4.30;99.90;;;;;;5091241;28;20314;-76
2022/01/13 07:05:52;;;;;;;86.10;20.93;;;4.30;99.90;;;;;;5095460;28;20288;-76
2022/01/13 07:08:19;;;;;;;103.23;20.87;;;4.40;99.90;;;;;;5097171;28;20210;-76
2022/01/13 07:10:46;;;;;;;80.40;20.57;;;4.40;99.90;;;;;;5073541;28;20217;-76
2022/01/13 07:13:13;;;;;;;90.70;20.97;;;4.30;99.90;;;;;;5087731;28;20567;-75
2022/01/13 07:15:43;;;;;;;85.07;19.73;;;4.30;99.90;;;;;;5088660;28;20201;-76
2022/01/13 07:18:10;;;;;;;97.73;20.03;;;4.30;99.90;;;;;;5094011;28;20778;-76
2022/01/13 07:20:39;;;;;;;87.93;18.80;;;4.30;99.90;;;;;;5091849;28;20212;-76
2022/01/13 07:23:06;;;;;;;93.70;21.23;;;4.30;99.90;;;;;;5096500;28;20314;-76
2022/01/13 07:25:33;;;;;;;88.20;19.10;;;4.30;99.90;;;;;;5096670;28;20225;-76
2022/01/13 07:27:59;;;;;;;93.63;19.43;;;4.30;99.90;;;;;;5090414;28;20212;-75
2022/01/13 07:30:26;;;;;;;102.03;22.10;;;4.30;99.90;;;;;;5084762;28;20625;-76
2022/01/13 07:32:53;;;;;;;82.87;20.40;;;4.30;99.90;;;;;;5089026;28;20220;-75
2022/01/13 07:35:20;;;;;;;84.33;19.80;;;4.40;99.90;;;;;;5094486;28;20203;-75
2022/01/13 07:37:46;;;;;;;87.83;18.90;;;4.30;99.90;;;;;;5093849;28;20601;-75
2022/01/13 07:40:14;;;;;;;82.83;19.03;;;4.30;99.90;;;;;;5096828;28;20324;-76
2022/01/13 07:42:46;;;;;;;86.83;18.90;;;4.30;99.90;;;;;;5095642;28;20205;-75
2022/01/13 07:45:15;;;;;;;101.87;20.33;;;4.30;99.90;;;;;;5080556;28;20201;-75
2022/01/13 07:47:42;;;;;;;80.10;18.20;;;4.30;99.90;;;;;;5089089;28;20295;-76
2022/01/13 07:50:11;;;;;;;80.33;19.10;;;4.30;99.90;;;;;;5080955;28;20256;-75
2022/01/13 07:52:37;;;;;;;89.67;18.20;;;4.30;99.90;;;;;;5098001;28;20206;-75
2022/01/13 07:55:05;;;;;;;77.13;17.57;;;4.30;99.90;;;;;;5093735;28;20286;-74
2022/01/13 07:57:31;;;;;;;79.67;18.13;;;4.30;99.90;;;;;;5095224;28;20215;-75
2022/01/13 07:59:58;;;;;;;89.30;18.90;;;4.40;99.90;;;;;;5099584;28;20207;-76
2022/01/13 08:02:26;;;;;;;83.67;17.80;;;4.30;99.90;;;;;;5083354;28;20286;-76
2022/01/13 08:04:53;;;;;;;75.90;18.67;;;4.40;99.90;;;;;;5093806;28;20287;-76
2022/01/13 08:07:20;;;;;;;86.47;18.67;;;4.40;99.90;;;;;;5099736;28;20221;-76
2022/01/13 08:09:47;;;;;;;75.30;16.70;;;4.40;99.90;;;;;;5072632;28;20211;-75
2022/01/13 08:12:14;;;;;;;65.77;17.83;;;4.40;99.90;;;;;;5093543;28;20212;-76
2022/01/13 08:14:41;;;;;;;84.60;19.57;;;4.40;99.90;;;;;;5095008;28;20207;-76
2022/01/13 08:17:18;;;;;;;83.73;17.27;;;4.50;99.90;;;;;;5093443;28;20687;-76
2022/01/13 08:19:48;;;;;;;75.93;17.17;;;4.50;99.90;;;;;;5089799;28;20221;-75
2022/01/13 08:22:17;;;;;;;75.20;17.50;;;4.50;99.90;;;;;;5099157;28;20255;-76
2022/01/13 08:24:43;;;;;;;70.53;17.37;;;4.50;99.90;;;;;;5093631;28;20227;-74
2022/01/13 08:27:10;;;;;;;82.23;17.80;;;4.50;99.90;;;;;;5096378;28;20258;-76
2022/01/13 08:29:37;;;;;;;66.63;16.57;;;4.50;99.90;;;;;;5081771;28;20203;-76
2022/01/13 08:32:04;;;;;;;72.43;16.97;;;4.50;99.90;;;;;;5094264;28;20217;-75
2022/01/13 08:34:31;;;;;;;86.83;18.80;;;4.50;99.90;;;;;;5097281;28;20374;-75
2022/01/13 08:36:58;;;;;;;63.27;16.07;;;4.50;99.90;;;;;;5083240;28;20204;-76
2022/01/13 08:39:25;;;;;;;69.33;17.57;;;4.60;99.90;;;;;;5093122;28;20327;-76
2022/01/13 08:41:52;;;;;;;66.03;17.50;;;4.60;99.90;;;;;;5081179;28;20212;-76
2022/01/13 08:44:18;;;;;;;72.30;17.30;;;4.70;99.90;;;;;;5070671;28;20231;-76
2022/01/13 08:46:45;;;;;;;63.43;16.67;;;4.70;99.90;;;;;;5091767;28;20222;-76
2022/01/13 08:49:12;;;;;;;64.30;16.23;;;4.70;99.90;;;;;;5084980;28;20235;-76
2022/01/13 08:51:39;;;;;;;63.87;17.27;;;4.70;99.90;;;;;;5094412;28;20214;-76
2022/01/13 08:54:06;;;;;;;62.37;16.87;;;4.80;99.90;;;;;;5096991;28;20209;-76
2022/01/13 08:56:33;;;;;;;66.80;16.40;;;4.70;99.90;;;;;;5098673;28;20206;-76
2022/01/13 08:58:59;;;;;;;61.30;16.60;;;4.80;99.90;;;;;;5095692;28;20204;-76
2022/01/13 09:01:28;;;;;;;70.50;18.00;;;4.70;99.90;;;;;;5091181;28;20228;-76
2022/01/13 09:03:56;;;;;;;69.23;16.67;;;4.70;99.90;;;;;;5089683;28;20227;-76
2022/01/13 09:06:23;;;;;;;75.37;18.50;;;4.80;99.90;;;;;;5097413;28;20214;-76
2022/01/13 09:08:49;;;;;;;69.63;17.10;;;4.70;99.90;;;;;;5093546;28;20212;-76
2022/01/13 09:11:16;;;;;;;70.73;17.43;;;4.70;99.90;;;;;;5093878;28;20624;-76
2022/01/13 09:13:43;;;;;;;64.23;17.23;;;4.80;99.90;;;;;;5093191;28;20212;-75
2022/01/13 09:16:17;;;;;;;68.03;17.23;;;4.90;99.90;;;;;;5083330;28;20215;-75
2022/01/13 09:21:26;;;;;;;61.43;16.00;;;4.90;99.90;;;;;;5094898;28;20219;-75
2022/01/13 09:23:53;;;;;;;73.03;17.93;;;4.80;99.90;;;;;;5097251;28;20228;-76
2022/01/13 09:26:20;;;;;;;67.97;17.87;;;4.80;99.90;;;;;;5088786;28;20230;-76
2022/01/13 09:28:46;;;;;;;62.17;16.57;;;4.80;99.90;;;;;;5094853;28;20267;-77
2022/01/13 09:31:13;;;;;;;79.20;18.20;;;4.80;99.90;;;;;;5090565;28;20720;-76
2022/01/13 09:33:40;;;;;;;65.70;16.63;;;4.90;99.90;;;;;;5091973;28;20332;-75
2022/01/13 09:36:07;;;;;;;64.23;18.07;;;4.80;99.90;;;;;;5091211;28;20307;-76
2022/01/13 09:38:35;;;;;;;63.60;19.70;;;4.80;99.90;;;;;;5096100;28;20675;-75
2022/01/13 09:41:02;;;;;;;71.23;17.77;;;4.70;99.90;;;;;;5097623;28;20248;-76
2022/01/13 09:43:29;;;;;;;66.17;18.30;;;4.80;99.90;;;;;;5084395;28;20277;-75
2022/01/13 09:46:00;;;;;;;71.53;18.73;;;4.80;99.90;;;;;;5091336;28;20208;-74
2022/01/13 09:48:28;;;;;;;70.63;19.83;;;4.90;99.90;;;;;;5088941;28;20749;-75
2022/01/13 09:50:55;;;;;;;62.37;18.37;;;4.90;99.90;;;;;;5082529;28;20300;-75
2022/01/13 09:53:22;;;;;;;56.60;17.27;;;4.90;99.90;;;;;;5092881;28;20200;-75
2022/01/13 09:55:49;;;;;;;63.07;18.50;;;5.00;99.90;;;;;;5093962;28;20213;-74
2022/01/13 09:58:16;;;;;;;74.27;18.90;;;4.90;99.90;;;;;;5094873;28;20205;-76
2022/01/13 10:00:44;;;;;;;68.80;19.87;;;5.00;99.90;;;;;;5090618;28;20295;-76
2022/01/13 10:03:14;;;;;;;70.13;18.43;;;5.00;99.90;;;;;;5097600;28;20215;-75
2022/01/13 10:05:53;;;;;;;56.33;17.40;;;5.00;99.90;;;;;;5091669;28;20234;-75
2022/01/13 10:08:22;;;;;;;70.10;18.20;;;5.10;99.90;;;;;;5086909;28;20302;-75
2022/01/13 10:10:49;;;;;;;69.30;18.80;;;5.10;99.90;;;;;;5098503;28;20212;-75
2022/01/13 10:13:29;;;;;;;70.07;19.03;;;5.10;99.90;;;;;;5094468;28;20207;-76
2022/01/13 10:18:45;;;;;;;65.80;19.97;;;5.10;99.90;;;;;;5087472;28;20227;-77
2022/01/13 10:21:16;;;;;;;63.67;17.83;;;5.00;99.90;;;;;;5091896;28;20308;-75
2022/01/13 10:24:12;;;;;;;88.03;21.30;;;5.10;99.90;;;;;;5085872;28;20303;-75
2022/01/13 10:26:55;;;;;;;76.27;20.37;;;5.10;99.90;;;;;;5089219;28;20219;-76
2022/01/13 10:30:07;;;;;;;69.57;19.37;;;5.10;99.90;;;;;;5086537;28;20700;-77
2022/01/13 10:32:39;;;;;;;73.73;19.60;;;5.20;99.90;;;;;;5032739;28;20306;-75
2022/01/13 10:35:06;;;;;;;64.13;19.40;;;5.10;99.90;;;;;;5091870;28;20241;-76
2022/01/13 10:37:35;;;;;;;68.37;19.80;;;5.20;99.90;;;;;;5090829;28;20211;-75
2022/01/13 10:40:12;;;;;;;68.60;19.37;;;5.20;99.90;;;;;;5087957;28;20329;-76
2022/01/13 10:45:21;;;;;;;60.80;19.20;;;5.30;99.90;;;;;;5084352;28;20223;-75
2022/01/13 10:47:58;;;;;;;62.83;20.10;;;5.30;99.90;;;;;;5088374;28;20218;-76
2022/01/13 10:50:38;;;;;;;68.43;18.63;;;5.20;99.90;;;;;;5089896;28;20279;-75
2022/01/13 10:53:10;;;;;;;71.20;19.73;;;5.20;99.90;;;;;;5092511;28;20218;-76
2022/01/13 10:55:41;;;;;;;63.80;18.87;;;5.20;99.90;;;;;;5094688;28;20213;-76
2022/01/13 10:58:15;;;;;;;64.47;18.83;;;5.20;99.90;;;;;;5089321;28;20714;-76
2022/01/13 11:00:43;;;;;;;57.27;18.57;;;5.20;99.90;;;;;;5096149;28;20255;-76
2022/01/13 11:03:16;;;;;;;63.37;19.93;;;5.20;99.90;;;;;;5096680;28;20211;-76
2022/01/13 11:05:59;;;;;;;73.00;18.70;;;5.30;99.90;;;;;;5090759;28;20235;-76
2022/01/13 11:08:40;;;;;;;57.63;20.37;;;5.40;99.90;;;;;;5097240;28;20261;-76
2022/01/13 11:11:26;;;;;;;64.03;18.27;;;5.30;99.90;;;;;;5091206;28;20213;-76
2022/01/13 11:13:54;;;;;;;58.37;17.37;;;5.30;99.90;;;;;;5096434;28;20964;-76
2022/01/13 11:16:21;;;;;;;54.40;17.07;;;5.40;99.90;;;;;;5084394;28;20662;-76
2022/01/13 11:18:49;;;;;;;56.17;17.83;;;5.40;99.90;;;;;;5095327;28;20711;-76
2022/01/13 11:21:15;;;;;;;56.60;17.07;;;5.40;99.90;;;;;;5096336;28;20250;-75
2022/01/13 11:23:48;;;;;;;55.73;18.30;;;5.40;99.90;;;;;;5086593;28;20213;-76
2022/01/13 11:26:16;;;;;;;56.17;18.13;;;5.50;99.90;;;;;;5095577;28;20242;-75
2022/01/13 11:28:43;;;;;;;46.30;16.90;;;5.40;99.90;;;;;;5085527;28;20253;-77
2022/01/13 11:31:11;;;;;;;44.47;16.67;;;5.40;99.90;;;;;;5073057;28;20209;-76
2022/01/13 11:33:38;;;;;;;51.67;16.27;;;5.40;99.90;;;;;;5094503;28;20220;-76
2022/01/13 11:36:12;;;;;;;50.90;16.83;;;5.40;99.90;;;;;;5086754;28;20321;-76
2022/01/13 11:38:56;;;;;;;51.07;17.77;;;5.40;99.90;;;;;;5087211;28;20663;-76
2022/01/13 11:41:23;;;;;;;50.23;17.53;;;5.40;99.90;;;;;;5101020;28;20529;-75
2022/01/13 11:43:50;;;;;;;51.40;16.13;;;5.50;99.90;;;;;;5090566;28;20281;-75
2022/01/13 11:46:21;;;;;;;47.17;16.20;;;5.60;99.90;;;;;;5085921;28;20207;-76
2022/01/13 11:52:13;;;;;;;51.00;15.63;;;5.60;99.90;;;;;;5077355;28;20689;-77
2022/01/13 11:54:41;;;;;;;47.37;15.20;;;5.50;99.90;;;;;;5085412;28;20204;-75
2022/01/13 11:57:29;;;;;;;49.77;16.73;;;5.50;99.90;;;;;;5096378;28;20251;-76
2022/01/13 11:59:55;;;;;;;42.40;15.23;;;5.50;99.90;;;;;;5095244;28;20839;-76
2022/01/13 12:02:31;;;;;;;45.87;15.97;;;5.40;99.90;;;;;;5087036;28;20215;-76
2022/01/13 12:05:16;;;;;;;49.47;17.20;;;5.50;99.90;;;;;;5091175;28;20243;-76
2022/01/13 12:07:53;;;;;;;42.57;16.97;;;5.50;99.90;;;;;;5096380;28;20221;-76
2022/01/13 12:10:23;;;;;;;47.47;16.63;;;5.50;99.90;;;;;;5094156;28;20244;-75
2022/01/13 12:12:50;;;;;;;52.00;16.27;;;5.50;99.90;;;;;;5093754;28;20212;-76
2022/01/13 12:15:21;;;;;;;54.20;17.47;;;5.50;99.90;;;;;;5085694;28;20574;-76
2022/01/13 12:17:59;;;;;;;48.03;16.50;;;5.60;99.90;;;;;;5094478;28;20768;-77
2022/01/13 12:20:40;;;;;;;42.70;16.70;;;5.60;99.90;;;;;;5092388;28;20319;-76
2022/01/13 12:23:27;;;;;;;47.30;16.57;;;5.60;99.90;;;;;;5094740;28;20292;-76
2022/01/13 12:25:54;;;;;;;40.90;15.80;;;5.60;99.90;;;;;;5095340;28;20562;-76
2022/01/13 12:28:21;;;;;;;46.97;17.40;;;5.60;99.90;;;;;;5082919;28;20209;-77
2022/01/13 12:30:49;;;;;;;42.00;16.27;;;5.50;99.90;;;;;;5095938;28;20242;-76
2022/01/13 12:33:33;;;;;;;44.07;16.60;;;5.40;99.90;;;;;;5093149;28;20316;-76
2022/01/13 12:35:59;;;;;;;51.50;17.60;;;5.50;99.90;;;;;;5093894;28;20694;-76
2022/01/13 12:38:27;;;;;;;43.10;16.13;;;5.40;99.90;;;;;;5092606;28;20743;-76
2022/01/13 12:41:03;;;;;;;42.37;17.47;;;5.40;99.90;;;;;;5075037;28;20537;-75
2022/01/13 12:46:10;;;;;;;45.30;17.27;;;5.50;99.90;;;;;;5084561;28;20264;-75
2022/01/13 12:48:41;;;;;;;37.27;15.90;;;5.50;99.90;;;;;;5068858;28;20301;-75
2022/01/13 12:51:13;;;;;;;45.57;18.27;;;5.60;99.90;;;;;;5097333;28;20232;-75
2022/01/13 12:53:43;;;;;;;44.77;16.97;;;5.70;99.90;;;;;;5091950;28;20215;-77
2022/01/13 12:56:15;;;;;;;43.27;16.27;;;5.70;99.90;;;;;;5100294;28;20224;-76
2022/01/13 12:58:45;;;;;;;47.33;17.33;;;5.80;99.90;;;;;;5090471;28;20677;-75
2022/01/13 13:01:17;;;;;;;41.10;15.73;;;5.80;99.90;;;;;;5082250;28;20215;-76
2022/01/13 13:04:02;;;;;;;41.53;16.73;;;5.70;99.90;;;;;;5093870;28;20717;-77
2022/01/13 13:06:30;;;;;;;42.70;16.60;;;5.70;99.90;;;;;;5089190;28;20231;-76
2022/01/13 13:09:24;;;;;;;39.87;15.87;;;5.70;99.90;;;;;;5090800;28;20251;-76
2022/01/13 13:11:56;;;;;;;38.33;16.10;;;5.70;99.90;;;;;;5089568;28;20795;-78
2022/01/13 13:17:27;;;;;;;34.20;15.23;;;5.70;99.90;;;;;;5086729;28;20225;-77
2022/01/13 13:19:54;;;;;;;35.33;15.27;;;5.70;99.90;;;;;;5089986;28;20203;-76